CWGZ

Grise Fiord Airport

Canada
METAR CWGZ 192100Z 07011KT 8SM SCT054 M27/M36 A2956 RMK SC3 -25.6/-29.0/0.0/LAST OBS/NEXT 221300Z SLP020
Observed Flight Rules
Jan-19 @ 21:00 UTC (14 hours ago) Visual Flight Rules
Wind Visibility Clouds
70° at 11 knots 8 miles
  • Scattered at 5,400' AGL
Temperatures Readings
Current -27°C / -17°F
Dewpoint -36°C / -33°F
Humidity 42%
Altimeter 29.56" Hg
Pressure 1002 hPa
Elevation 45
METAR CWGZ 192100Z 07011KT 8SM SCT054 M27/M36 A2956 RMK SC3 -25.6/-29.0/0.0/LAST OBS/NEXT 221300Z SLP020
Observed Flight Rules
Jan-19 @ 21:00 UTC
(14 hours ago)
VFR
Wind Visibility
70° at 11 knots 8 miles
Clouds
  • Scattered at 5,400' AGL
Temperature Dewpoint
-27°C / -17°F -36°C / -33°F
Humidity Altimeter Pressure
42% 29.56" Hg 1002 hPa